Skip Navigation Links
NOAA logo - Click to go to the NOAA homepage
NOAA's National Weather Service
Alaska Aviation Weather Unit
  NWS logo - Click to go to the NWS homepage
Left Navbar Graphic     12 AKDT = 20 GMT

   
NOAA is celebrating 200 years of science, service, and stewardship. Visit the NOAA 200th celebration Web site to learn more.
USA.gov is the U.S. Government's official Web portal to all Federal, state and local government Web resources and services.
Facebook
NWS on Facebook

Important Change Regarding the AAWU Web Presence

 

Over the last several months, the AAWU has been working to navigate its webpages to a nationally supported server. Security, as well as other needs, have necessitated the change.  We have been given an extension for the site changeover while we diligently work at addressing feedback received. As of July 14, 2017, aawu.arh.noaa.gov will be discontinued. The new AAWU web address is weather.gov/aawu. It is now live and will run in-parallel with the old site until it is discontinued on July 14, 2017. Please continue to send any feedback or questions regarding the new webpages to nws.ar.aawu.webauthors@noaa.gov.  Thank you for your patience during this time of transition.
AAWU Home :: Display TAF Add Bookmark
SPECI PAWS 251408Z AUTO 00000KT 10SM OVC006 13/12 A3002 RMK AO2=

METAR PAWS 251456Z AUTO 00000KT 9SM -RA OVC008 13/12 A3002 RMK AO2
 RAB46 SLP180 P0000 60000 T01280122 56003=

SPECI PAWS 251607Z AUTO 00000KT 6SM BR BKN004 OVC008 13/12 A3002 RMK AO2
     CIG 003V007=

SPECI PAWS 251741Z AUTO 00000KT 9SM OVC006 13/12 A3001 RMK AO2=

METAR PAWS 251756Z AUTO 24003KT 4SM -RA BR OVC006 13/12 A3001 RMK AO2
     RAB56 SLP178 P0000 60001 T01280122 10133 20128 55002=

SPECI PAWS 251804Z AUTO 00000KT 4SM -RA BR OVC004 13/12 A3001 RMK AO2
     P0000=

SPECI PAWS 251837Z AUTO 00000KT 4SM -RA BR SCT006 BKN014 OVC023 13/12
     A3001 RMK AO2 P0001=

SPECI PAWS 251854Z AUTO 00000KT 4SM -RA BR SCT003 BKN015 OVC021 13/12
     A3001 RMK AO2 P0001=

SPECI PAWS 251910Z AUTO 00000KT 5SM -RA BR BKN005 BKN011 OVC019 13/13
     A3001 RMK AO2 CIG 003V007 P0000=

SPECI PAWS 252010Z AUTO 00000KT 4SM -RA BR FEW005 BKN021 OVC029 13/12
     A3001 RMK AO2 P0000=


NOAA's National Weather Service
Alaska Aviation Weather Unit
6930 Sand Lake Road
Anchorage, AK 99502-1845
Disclaimer
Credits
Glossary
Privacy Policy
About Us
Career Opportunities
Contact AAWU Internet Services Site last modified: April, 17th 2012